createdAt,value
2016-07-09T00:00:13.254Z,1009.91
2016-07-09T00:01:13.251Z,1009.98
2016-07-09T00:02:13.250Z,1009.99
2016-07-09T00:03:13.248Z,1010
2016-07-09T00:04:13.244Z,1010.04
2016-07-09T00:05:13.241Z,1010.01
2016-07-09T00:06:13.238Z,1009.99
2016-07-09T00:07:13.238Z,1009.95
2016-07-09T00:08:13.234Z,1009.96
2016-07-09T00:09:13.234Z,1009.95
2016-07-09T00:10:13.230Z,1009.92
2016-07-09T00:11:13.230Z,1009.9
2016-07-09T00:12:13.225Z,1009.93
2016-07-09T00:13:13.223Z,1009.94
2016-07-09T00:14:13.224Z,1009.93
2016-07-09T00:15:13.221Z,1009.93
2016-07-09T00:16:13.219Z,1009.95
2016-07-09T00:17:13.216Z,1009.97
2016-07-09T00:18:13.212Z,1009.91
2016-07-09T00:19:13.306Z,1009.92
2016-07-09T00:20:13.208Z,1009.9
2016-07-09T00:21:13.206Z,1009.91
2016-07-09T00:22:13.204Z,1009.95
2016-07-09T00:23:14.313Z,1009.9
2016-07-09T00:24:13.202Z,1009.94
2016-07-09T00:25:13.455Z,1009.91
2016-07-09T00:26:13.250Z,1009.93
2016-07-09T00:27:13.195Z,1009.94
2016-07-09T00:28:13.192Z,1009.96
2016-07-09T00:29:13.193Z,1009.99
2016-07-09T00:30:13.188Z,1010
2016-07-09T00:31:13.188Z,1009.95
2016-07-09T00:32:13.186Z,1009.98
2016-07-09T00:33:13.181Z,1009.95
2016-07-09T00:34:13.181Z,1009.97
2016-07-09T00:35:13.177Z,1009.94
2016-07-09T00:36:13.178Z,1010
2016-07-09T00:37:13.174Z,1010.04
2016-07-09T00:38:13.173Z,1009.97
2016-07-09T00:39:13.171Z,1009.99
2016-07-09T00:40:13.170Z,1009.99
2016-07-09T00:41:13.166Z,1009.97
2016-07-09T00:42:13.164Z,1010
2016-07-09T00:43:13.163Z,1009.97
2016-07-09T00:44:13.161Z,1010.01
2016-07-09T00:45:13.157Z,1010.05
2016-07-09T00:46:13.157Z,1010.05
2016-07-09T00:47:13.154Z,1010.07
2016-07-09T00:48:13.156Z,1010.05
2016-07-09T00:49:13.160Z,1010.08
2016-07-09T00:50:13.147Z,1010.06
2016-07-09T00:51:13.148Z,1010.05
2016-07-09T00:52:13.445Z,1010.06
2016-07-09T00:53:13.143Z,1010.11
2016-07-09T00:54:13.141Z,1010.08
2016-07-09T00:57:13.135Z,1010.09
2016-07-09T00:59:13.128Z,1010.13
2016-07-09T01:00:13.128Z,1010.12
2016-07-09T01:01:13.123Z,1010.19
2016-07-09T01:02:13.124Z,1010.17
2016-07-09T01:03:13.120Z,1010.2
2016-07-09T01:04:13.117Z,1010.15
2016-07-09T01:05:13.116Z,1010.24
2016-07-09T01:06:13.111Z,1010.23
2016-07-09T01:07:13.109Z,1010.25
2016-07-09T01:08:13.109Z,1010.28
2016-07-09T01:09:13.105Z,1010.3
2016-07-09T01:10:13.101Z,1010.29
2016-07-09T01:11:13.101Z,1010.31
2016-07-09T01:12:13.100Z,1010.25
2016-07-09T01:13:13.096Z,1010.31
2016-07-09T01:14:13.094Z,1010.24
2016-07-09T01:15:13.091Z,1010.23
2016-07-09T01:16:13.087Z,1010.24
2016-07-09T01:17:13.086Z,1010.22
2016-07-09T01:18:13.082Z,1010.18
2016-07-09T01:19:13.082Z,1010.19
2016-07-09T01:20:13.079Z,1010.2
2016-07-09T01:21:13.077Z,1010.18
2016-07-09T01:22:13.075Z,1010.21
2016-07-09T01:23:13.070Z,1010.18
2016-07-09T01:24:13.070Z,1010.19
2016-07-09T01:25:13.066Z,1010.18
2016-07-09T01:26:13.062Z,1010.16
2016-07-09T01:27:13.061Z,1010.2
2016-07-09T01:28:13.060Z,1010.19
2016-07-09T01:29:13.060Z,1010.21
2016-07-09T01:30:13.056Z,1010.21
2016-07-09T01:31:13.053Z,1010.21
2016-07-09T01:32:13.050Z,1010.21
2016-07-09T01:33:13.059Z,1010.22
2016-07-09T01:34:13.049Z,1010.18
2016-07-09T01:35:13.043Z,1010.19
2016-07-09T01:36:13.040Z,1010.15
2016-07-09T01:37:13.040Z,1010.16
2016-07-09T01:38:13.038Z,1010.13
2016-07-09T01:39:13.035Z,1010.12
2016-07-09T01:40:13.032Z,1010.16
2016-07-09T01:41:13.032Z,1010.17
2016-07-09T01:42:14.304Z,1010.18
2016-07-09T01:43:13.067Z,1010.24
2016-07-09T01:44:13.654Z,1010.15
2016-07-09T01:45:13.021Z,1010.15
2016-07-09T01:46:13.021Z,1010.15
2016-07-09T01:47:13.016Z,1010.15
2016-07-09T01:48:13.364Z,1010.1
2016-07-09T01:49:13.012Z,1010.11
2016-07-09T01:50:13.012Z,1010.15
2016-07-09T01:51:13.010Z,1010.2
2016-07-09T01:52:13.005Z,1010.19
2016-07-09T01:53:13.006Z,1010.16
2016-07-09T01:54:13.001Z,1010.16
2016-07-09T01:55:12.999Z,1010.2
2016-07-09T01:56:12.998Z,1010.18
2016-07-09T01:57:12.998Z,1010.2
2016-07-09T01:58:12.992Z,1010.2
2016-07-09T01:59:12.991Z,1010.2
2016-07-09T02:00:12.990Z,1010.2
2016-07-09T02:01:12.986Z,1010.21
2016-07-09T02:02:12.984Z,1010.21
2016-07-09T02:03:12.985Z,1010.18
2016-07-09T02:04:13.030Z,1010.18
2016-07-09T02:05:12.979Z,1010.11
2016-07-09T02:06:13.178Z,1010.17
2016-07-09T02:07:12.974Z,1010.14
2016-07-09T02:08:12.971Z,1010.15
2016-07-09T02:09:12.970Z,1010.15
2016-07-09T02:10:12.969Z,1010.14
2016-07-09T02:11:12.966Z,1010.13
2016-07-09T02:12:12.964Z,1010.16
2016-07-09T02:13:12.961Z,1010.14
2016-07-09T02:14:13.009Z,1010.13
2016-07-09T02:15:12.958Z,1010.16
2016-07-09T02:16:12.953Z,1010.13
2016-07-09T02:17:13.500Z,1010.16
2016-07-09T02:18:12.950Z,1010.1
2016-07-09T02:19:12.997Z,1010.11
2016-07-09T02:20:12.944Z,1010.1
2016-07-09T02:21:12.941Z,1010.09
2016-07-09T02:22:12.938Z,1010.08
2016-07-09T02:23:12.935Z,1010.09
2016-07-09T02:24:12.933Z,1010.12
2016-07-09T02:25:12.932Z,1010.1
2016-07-09T02:26:12.931Z,1010.04
2016-07-09T02:27:12.926Z,1010.1
2016-07-09T02:28:12.926Z,1010.09
2016-07-09T02:29:12.924Z,1010.1
2016-07-09T02:30:12.922Z,1010.13
2016-07-09T02:31:12.916Z,1010.15
2016-07-09T02:32:12.916Z,1010.13
2016-07-09T02:33:12.914Z,1010.13
2016-07-09T02:34:12.910Z,1010.14
2016-07-09T02:35:12.910Z,1010.17
2016-07-09T02:36:12.907Z,1010.21
2016-07-09T02:37:12.904Z,1010.19
2016-07-09T02:38:12.903Z,1010.23
2016-07-09T02:39:12.899Z,1010.17
2016-07-09T02:40:12.899Z,1010.21
2016-07-09T02:41:12.897Z,1010.21
2016-07-09T02:42:12.896Z,1010.26
2016-07-09T02:43:12.893Z,1010.25
2016-07-09T02:44:12.892Z,1010.23
2016-07-09T02:45:12.886Z,1010.23
2016-07-09T02:46:12.887Z,1010.24
2016-07-09T02:47:12.882Z,1010.26
2016-07-09T02:48:12.880Z,1010.26
2016-07-09T02:49:12.878Z,1010.28
2016-07-09T02:50:12.875Z,1010.27
2016-07-09T02:51:13.043Z,1010.25
2016-07-09T02:52:12.874Z,1010.25
2016-07-09T02:53:13.667Z,1010.24
2016-07-09T02:54:12.871Z,1010.19
2016-07-09T02:55:12.866Z,1010.21
2016-07-09T02:56:12.864Z,1010.26
2016-07-09T02:57:12.861Z,1010.24
2016-07-09T02:58:12.858Z,1010.27
2016-07-09T02:59:12.858Z,1010.28
2016-07-09T03:01:12.854Z,1010.3
2016-07-09T03:02:12.862Z,1010.3
2016-07-09T03:03:12.847Z,1010.3
2016-07-09T03:04:12.847Z,1010.28
2016-07-09T03:05:12.844Z,1010.26
2016-07-09T03:06:12.843Z,1010.32
2016-07-09T03:07:12.837Z,1010.3
2016-07-09T03:08:12.837Z,1010.31
2016-07-09T03:09:12.836Z,1010.29
2016-07-09T03:10:12.831Z,1010.3
2016-07-09T03:11:12.828Z,1010.23
2016-07-09T03:12:12.829Z,1010.29
2016-07-09T03:13:12.827Z,1010.26
2016-07-09T03:14:12.824Z,1010.29
2016-07-09T03:15:12.825Z,1010.23
2016-07-09T03:16:12.820Z,1010.25
2016-07-09T03:17:12.816Z,1010.26
2016-07-09T03:18:12.814Z,1010.28
2016-07-09T03:19:12.814Z,1010.27
2016-07-09T03:20:12.809Z,1010.33
2016-07-09T03:21:12.809Z,1010.28
2016-07-09T03:22:12.810Z,1010.35
2016-07-09T03:24:12.802Z,1010.37
2016-07-09T03:25:13.600Z,1010.41
2016-07-09T03:26:12.798Z,1010.33
2016-07-09T03:27:12.797Z,1010.4
2016-07-09T03:28:12.792Z,1010.45
2016-07-09T03:29:12.791Z,1010.38
2016-07-09T03:30:12.941Z,1010.33
2016-07-09T03:31:12.788Z,1010.32
2016-07-09T03:32:12.784Z,1010.35
2016-07-09T03:33:12.781Z,1010.35
2016-07-09T03:34:12.780Z,1010.36
2016-07-09T03:35:12.779Z,1010.36
2016-07-09T03:36:12.778Z,1010.34
2016-07-09T03:37:12.776Z,1010.32
2016-07-09T03:38:12.778Z,1010.38
2016-07-09T03:39:12.772Z,1010.43
2016-07-09T03:40:12.769Z,1010.46
2016-07-09T03:41:12.768Z,1010.46
2016-07-09T03:42:12.766Z,1010.42
2016-07-09T03:43:12.766Z,1010.5
2016-07-09T03:44:12.760Z,1010.52
2016-07-09T03:45:12.760Z,1010.55
2016-07-09T03:46:12.759Z,1010.62
2016-07-09T03:47:12.757Z,1010.63
2016-07-09T03:48:12.755Z,1010.64
2016-07-09T03:49:12.754Z,1010.66
2016-07-09T03:50:12.752Z,1010.61
2016-07-09T03:51:12.750Z,1010.59
2016-07-09T03:52:12.749Z,1010.64
2016-07-09T03:53:12.750Z,1010.59
2016-07-09T03:54:12.748Z,1010.65
2016-07-09T03:55:12.748Z,1010.65
2016-07-09T03:56:12.743Z,1010.7
2016-07-09T03:57:12.743Z,1010.69
2016-07-09T03:58:12.742Z,1010.76
2016-07-09T03:59:12.740Z,1010.72
2016-07-09T04:00:12.740Z,1010.73
2016-07-09T04:01:12.742Z,1010.71
2016-07-09T04:02:12.739Z,1010.74
2016-07-09T04:03:12.743Z,1010.73
2016-07-09T04:04:12.737Z,1010.74
2016-07-09T04:05:12.739Z,1010.7
2016-07-09T04:06:12.737Z,1010.73
2016-07-09T04:07:12.739Z,1010.74
2016-07-09T04:08:12.738Z,1010.66
2016-07-09T04:09:14.123Z,1010.72
2016-07-09T04:10:14.198Z,1010.75
2016-07-09T04:11:12.734Z,1010.78
2016-07-09T04:12:12.732Z,1010.76
2016-07-09T04:13:12.731Z,1010.76
2016-07-09T04:14:12.730Z,1010.74
2016-07-09T04:15:12.911Z,1010.72
2016-07-09T04:16:12.729Z,1010.72
2016-07-09T04:17:12.730Z,1010.72
2016-07-09T04:18:12.730Z,1010.74
2016-07-09T04:19:12.729Z,1010.77
2016-07-09T04:20:14.170Z,1010.83
2016-07-09T04:21:13.591Z,1010.84
2016-07-09T04:22:12.727Z,1010.84
2016-07-09T04:23:12.725Z,1010.87
2016-07-09T04:24:12.723Z,1010.9
2016-07-09T04:25:12.725Z,1010.89
2016-07-09T04:26:12.724Z,1010.9
2016-07-09T04:27:12.720Z,1010.95
2016-07-09T04:28:12.721Z,1010.97
2016-07-09T04:29:12.719Z,1010.98
2016-07-09T04:30:12.720Z,1010.91
2016-07-09T04:31:12.716Z,1010.93
2016-07-09T04:32:12.716Z,1010.96
2016-07-09T04:33:12.716Z,1011
2016-07-09T04:34:12.716Z,1011.02
2016-07-09T04:35:12.712Z,1011
2016-07-09T04:36:12.714Z,1011.03
2016-07-09T04:37:12.711Z,1010.99
2016-07-09T04:38:12.709Z,1010.94
2016-07-09T04:39:12.709Z,1010.95
2016-07-09T04:40:12.707Z,1010.97
2016-07-09T04:41:12.709Z,1010.99
2016-07-09T04:42:12.708Z,1011.04
2016-07-09T04:43:13.612Z,1011.01
2016-07-09T04:44:12.704Z,1011.08
2016-07-09T04:45:12.705Z,1011.06
2016-07-09T04:46:12.706Z,1011.04
2016-07-09T04:47:12.700Z,1011.04
2016-07-09T04:48:12.702Z,1011.08
2016-07-09T04:49:12.697Z,1011.07
2016-07-09T04:50:12.700Z,1011.08
2016-07-09T04:51:12.698Z,1011.07
2016-07-09T04:52:12.695Z,1011.1
2016-07-09T04:53:12.693Z,1011.09
2016-07-09T04:54:12.692Z,1011.12
2016-07-09T04:55:12.694Z,1011.29
2016-07-09T04:56:12.991Z,1011.31
2016-07-09T04:57:12.691Z,1011.3
2016-07-09T04:58:12.689Z,1011.18
2016-07-09T04:59:12.687Z,1011.2
2016-07-09T05:00:12.692Z,1011.24
2016-07-09T05:01:12.687Z,1011.3
2016-07-09T05:02:12.684Z,1011.33
2016-07-09T05:03:12.683Z,1011.28
2016-07-09T05:04:12.683Z,1011.33
2016-07-09T05:05:12.684Z,1011.29
2016-07-09T05:06:12.680Z,1011.28
2016-07-09T05:07:12.681Z,1011.31
2016-07-09T05:08:12.681Z,1011.29
2016-07-09T05:09:12.678Z,1011.31
2016-07-09T05:10:12.679Z,1011.4
2016-07-09T05:11:12.676Z,1011.48
2016-07-09T05:12:12.675Z,1011.35
2016-07-09T05:13:12.676Z,1011.5
2016-07-09T05:14:12.675Z,1011.49
2016-07-09T05:15:12.675Z,1011.52
2016-07-09T05:16:12.672Z,1011.57
2016-07-09T05:17:12.675Z,1011.48
2016-07-09T05:18:12.676Z,1011.49
2016-07-09T05:19:12.671Z,1011.36
2016-07-09T05:20:12.674Z,1011.34
2016-07-09T05:21:12.674Z,1011.42
2016-07-09T05:22:12.673Z,1011.44
2016-07-09T05:23:12.674Z,1011.47
2016-07-09T05:24:12.678Z,1011.44
2016-07-09T05:25:12.685Z,1011.53
2016-07-09T05:26:12.680Z,1011.46
2016-07-09T05:28:12.684Z,1011.53
2016-07-09T05:29:12.688Z,1011.51
2016-07-09T05:30:12.690Z,1011.47
2016-07-09T05:31:12.694Z,1011.55
2016-07-09T05:32:12.700Z,1011.47
2016-07-09T05:33:12.703Z,1011.67
2016-07-09T05:34:12.706Z,1011.75
2016-07-09T05:35:12.715Z,1011.6
2016-07-09T05:36:12.718Z,1011.65
2016-07-09T05:37:13.604Z,1011.61
2016-07-09T05:38:12.732Z,1011.58
2016-07-09T05:39:13.054Z,1011.67
2016-07-09T05:40:12.745Z,1011.5
2016-07-09T05:41:12.751Z,1011.93
2016-07-09T05:42:12.761Z,1011.59
2016-07-09T05:43:12.768Z,1011.61
2016-07-09T05:44:12.772Z,1011.41
2016-07-09T05:45:12.783Z,1011.51
2016-07-09T05:46:12.791Z,1011.57
2016-07-09T05:47:12.798Z,1011.61
2016-07-09T05:48:12.805Z,1011.52
2016-07-09T05:49:12.811Z,1011.53
2016-07-09T05:50:12.818Z,1011.53
2016-07-09T05:51:12.826Z,1011.6
2016-07-09T05:52:12.835Z,1011.68
2016-07-09T05:53:12.846Z,1011.71
2016-07-09T05:54:12.850Z,1011.6
2016-07-09T05:55:12.860Z,1011.58
2016-07-09T05:56:12.864Z,1011.77
2016-07-09T05:57:12.869Z,1011.56
2016-07-09T05:58:12.877Z,1011.87
2016-07-09T05:59:12.883Z,1011.63
2016-07-09T06:00:12.893Z,1011.76
2016-07-09T06:02:13.109Z,1011.96
2016-07-09T06:03:12.914Z,1011.93
2016-07-09T06:04:12.924Z,1011.7
2016-07-09T06:05:12.931Z,1011.74
2016-07-09T06:06:12.940Z,1011.95
2016-07-09T06:07:12.947Z,1011.88
2016-07-09T06:08:13.408Z,1011.83
2016-07-09T06:09:13.165Z,1011.73
2016-07-09T06:10:12.971Z,1011.91
2016-07-09T06:11:12.980Z,1012.05
2016-07-09T06:12:13.541Z,1011.85
2016-07-09T06:13:12.997Z,1011.83
2016-07-09T06:14:13.003Z,1012.05
2016-07-09T06:15:13.161Z,1011.86
2016-07-09T06:16:13.021Z,1011.97
2016-07-09T06:17:13.029Z,1011.9
2016-07-09T06:18:13.036Z,1011.96
2016-07-09T06:19:13.042Z,1011.91
2016-07-09T06:20:13.050Z,1011.94
2016-07-09T06:21:13.059Z,1011.92
2016-07-09T06:22:13.065Z,1011.97
2016-07-09T06:23:13.071Z,1011.85
2016-07-09T06:24:13.080Z,1011.96
2016-07-09T06:25:13.101Z,1012.05
2016-07-09T06:26:13.091Z,1012.07
2016-07-09T06:27:13.100Z,1012.03
2016-07-09T06:28:13.107Z,1012.13
2016-07-09T06:29:13.112Z,1012.17
2016-07-09T06:30:13.270Z,1012.28
2016-07-09T06:31:13.128Z,1011.92
2016-07-09T06:32:13.135Z,1012.1
2016-07-09T06:33:13.145Z,1012.25
2016-07-09T06:34:13.155Z,1012.32
2016-07-09T06:35:13.163Z,1012.65
2016-07-09T06:36:13.173Z,1012.54
2016-07-09T06:37:13.181Z,1012.11
2016-07-09T06:38:13.191Z,1012.58
2016-07-09T06:39:13.200Z,1012.26
2016-07-09T06:40:13.213Z,1012.13
2016-07-09T06:41:13.221Z,1012.09
2016-07-09T06:42:13.231Z,1012.12
2016-07-09T06:43:13.243Z,1012.12
2016-07-09T06:44:13.252Z,1012.11
2016-07-09T06:45:13.262Z,1012.34
2016-07-09T06:46:14.742Z,1012.58
2016-07-09T06:47:13.838Z,1012.46
2016-07-09T06:48:13.292Z,1012.22
2016-07-09T06:49:13.302Z,1012.22
2016-07-09T06:50:13.314Z,1012.36
2016-07-09T06:51:13.323Z,1012.79
2016-07-09T06:52:13.335Z,1012.36
2016-07-09T06:53:13.349Z,1012.19
2016-07-09T06:54:13.354Z,1012.09
2016-07-09T06:55:13.365Z,1012.09
2016-07-09T06:56:13.374Z,1012.08
2016-07-09T06:57:13.475Z,1012.08
2016-07-09T06:58:13.393Z,1011.95
2016-07-09T06:59:13.404Z,1011.84
2016-07-09T07:00:13.419Z,1011.84
2016-07-09T07:01:13.424Z,1012.07
2016-07-09T07:02:13.431Z,1012.38
2016-07-09T07:03:13.443Z,1012.38
2016-07-09T07:04:13.450Z,1012.43
2016-07-09T07:05:13.460Z,1012.36
2016-07-09T07:06:13.469Z,1012.31
2016-07-09T07:07:13.479Z,1012.42
2016-07-09T07:08:13.489Z,1012.41
2016-07-09T07:09:13.500Z,1012.4
2016-07-09T07:10:13.508Z,1012.6
2016-07-09T07:11:13.521Z,1012.53
2016-07-09T07:12:13.530Z,1012.68
2016-07-09T07:13:13.541Z,1012.91
2016-07-09T07:14:13.556Z,1012.76
2016-07-09T07:15:13.566Z,1012.59
2016-07-09T07:16:13.577Z,1012.65
2016-07-09T07:17:13.893Z,1012.63
2016-07-09T07:18:13.604Z,1012.9
2016-07-09T07:19:14.168Z,1012.65
2016-07-09T07:20:14.182Z,1012.52
2016-07-09T07:21:13.643Z,1012.42
2016-07-09T07:22:13.656Z,1012.35
2016-07-09T07:23:13.668Z,1012.56
2016-07-09T07:24:13.681Z,1012.49
2016-07-09T07:25:13.692Z,1013.12
2016-07-09T07:26:13.706Z,1012.55
2016-07-09T07:27:13.718Z,1012.35
2016-07-09T07:28:13.729Z,1012.25
2016-07-09T07:29:13.739Z,1012.32
2016-07-09T07:30:13.750Z,1012.31
2016-07-09T07:31:13.762Z,1012.5
2016-07-09T07:32:13.771Z,1012.44
2016-07-09T07:33:13.781Z,1012.41
2016-07-09T07:34:13.791Z,1012.42
2016-07-09T07:35:13.803Z,1012.32
2016-07-09T07:36:13.813Z,1012.38
2016-07-09T07:37:13.821Z,1012.43
2016-07-09T07:38:13.832Z,1013.78
2016-07-09T07:39:13.839Z,1013.66
2016-07-09T07:40:13.846Z,1012.71
2016-07-09T07:41:13.855Z,1012.79
2016-07-09T07:42:13.866Z,1012.76
2016-07-09T07:43:13.873Z,1012.66
2016-07-09T07:44:13.882Z,1012.51
2016-07-09T07:45:13.892Z,1012.67
2016-07-09T07:46:13.901Z,1012.87
2016-07-09T07:47:13.909Z,1012.71
2016-07-09T07:48:13.919Z,1012.6
2016-07-09T07:49:13.929Z,1012.49
2016-07-09T07:50:13.937Z,1012.87
2016-07-09T07:51:13.944Z,1013.31
2016-07-09T07:52:13.958Z,1013.08
2016-07-09T07:53:13.964Z,1013.32
2016-07-09T07:54:13.973Z,1013.35
2016-07-09T07:55:13.982Z,1013.4
2016-07-09T07:56:13.990Z,1013.26
2016-07-09T07:57:14.000Z,1012.92
2016-07-09T07:58:14.011Z,1012.85
2016-07-09T07:59:14.022Z,1012.59
2016-07-09T08:00:14.030Z,1012.58
2016-07-09T08:01:14.045Z,1012.51
2016-07-09T08:02:14.053Z,1012.41
2016-07-09T08:03:14.063Z,1012.71
2016-07-09T08:04:14.072Z,1012.94
2016-07-09T08:05:14.084Z,1013.15
2016-07-09T08:06:15.454Z,1013.16
2016-07-09T08:07:14.102Z,1012.88
2016-07-09T08:08:14.377Z,1012.71
2016-07-09T08:09:14.124Z,1012.73
2016-07-09T08:10:14.133Z,1012.83
2016-07-09T08:11:14.141Z,1012.84
2016-07-09T08:12:14.153Z,1012.91
2016-07-09T08:13:16.237Z,1012.87
2016-07-09T08:14:14.172Z,1012.77
2016-07-09T08:15:14.184Z,1012.78
2016-07-09T08:16:14.190Z,1012.77
2016-07-09T08:17:14.198Z,1012.82
2016-07-09T08:18:14.208Z,1012.73
2016-07-09T08:19:14.218Z,1012.63
2016-07-09T08:20:14.226Z,1012.77
2016-07-09T08:21:14.309Z,1012.79
2016-07-09T08:22:14.242Z,1012.75
2016-07-09T08:23:14.251Z,1012.76
2016-07-09T08:24:14.258Z,1012.91
2016-07-09T08:25:14.266Z,1012.96
2016-07-09T08:26:14.273Z,1012.95
2016-07-09T08:27:14.282Z,1012.97
2016-07-09T08:28:14.289Z,1013.11
2016-07-09T08:29:14.298Z,1013.06
2016-07-09T08:30:14.404Z,1013.19
2016-07-09T08:31:14.313Z,1013.23
2016-07-09T08:32:14.318Z,1013.22
2016-07-09T08:33:14.325Z,1013.06
2016-07-09T08:34:14.334Z,1013
2016-07-09T08:35:14.342Z,1012.91
2016-07-09T08:36:15.147Z,1013
2016-07-09T08:37:14.605Z,1013.05
2016-07-09T08:38:14.361Z,1012.96
2016-07-09T08:39:14.368Z,1012.92
2016-07-09T08:40:14.374Z,1012.92
2016-07-09T08:41:14.529Z,1012.87
2016-07-09T08:42:14.386Z,1012.79
2016-07-09T08:43:14.392Z,1012.81
2016-07-09T08:44:14.399Z,1012.86
2016-07-09T08:45:14.403Z,1012.98
2016-07-09T08:46:14.409Z,1012.97
2016-07-09T08:48:14.422Z,1013.15
2016-07-09T08:49:14.425Z,1013.29
2016-07-09T08:50:14.431Z,1013.33
2016-07-09T08:51:14.439Z,1013.35
2016-07-09T08:52:14.442Z,1013.46
2016-07-09T08:53:14.447Z,1013.45
2016-07-09T08:54:14.450Z,1013.42
2016-07-09T08:55:14.458Z,1013.46
2016-07-09T08:56:14.461Z,1013.48
2016-07-09T08:57:14.468Z,1013.4
2016-07-09T08:58:14.470Z,1013.26
2016-07-09T08:59:14.475Z,1013.32
2016-07-09T09:00:14.480Z,1013
2016-07-09T09:01:14.488Z,1013.35
2016-07-09T09:02:14.491Z,1013.4
2016-07-09T09:03:14.510Z,1013.39
2016-07-09T09:04:14.503Z,1013.52
2016-07-09T09:05:14.507Z,1013.51
2016-07-09T09:06:14.513Z,1013.59
2016-07-09T09:07:14.518Z,1013.57
2016-07-09T09:08:14.523Z,1013.64
2016-07-09T09:09:14.526Z,1013.65
2016-07-09T09:10:14.532Z,1013.57
2016-07-09T09:11:14.536Z,1013.5
2016-07-09T09:12:14.542Z,1013.44
2016-07-09T09:13:14.549Z,1013.45
2016-07-09T09:14:14.552Z,1013.29
2016-07-09T09:15:14.557Z,1013.14
2016-07-09T09:16:14.572Z,1013.25
2016-07-09T09:17:14.569Z,1013.34
2016-07-09T09:18:14.574Z,1013.3
2016-07-09T09:19:14.577Z,1013.29
2016-07-09T09:20:14.589Z,1013.48
2016-07-09T09:21:14.589Z,1013.48
2016-07-09T09:22:14.595Z,1013.56
2016-07-09T09:23:14.598Z,1013.48
2016-07-09T09:24:15.926Z,1013.59
2016-07-09T09:25:15.447Z,1013.59
2016-07-09T09:26:14.615Z,1013.62
2016-07-09T09:27:14.680Z,1013.46
2016-07-09T09:28:14.624Z,1013.67
2016-07-09T09:29:14.631Z,1013.6
2016-07-09T09:30:14.638Z,1013.28
2016-07-09T09:31:14.641Z,1013.25
2016-07-09T09:33:14.653Z,1013.33
2016-07-09T09:34:14.660Z,1013.41
2016-07-09T09:35:14.664Z,1013.5
2016-07-09T09:36:14.895Z,1013.47
2016-07-09T09:37:15.058Z,1013.32
2016-07-09T09:38:14.682Z,1013.35
2016-07-09T09:39:14.690Z,1013.19
2016-07-09T09:40:14.693Z,1013.08
2016-07-09T09:41:14.702Z,1013.01
2016-07-09T09:42:14.705Z,1012.98
2016-07-09T09:43:14.715Z,1013.25
2016-07-09T09:44:14.720Z,1013.38
2016-07-09T09:45:14.724Z,1013.21
2016-07-09T09:46:14.731Z,1013.56
2016-07-09T09:47:14.735Z,1013.44
2016-07-09T09:48:14.742Z,1013.1
2016-07-09T09:49:14.747Z,1012.97
2016-07-09T09:50:14.765Z,1012.87
2016-07-09T09:51:14.762Z,1012.89
2016-07-09T09:52:14.770Z,1012.92
2016-07-09T09:53:14.986Z,1012.85
2016-07-09T09:54:15.029Z,1012.84
2016-07-09T09:55:15.185Z,1012.93
2016-07-09T09:56:14.789Z,1012.88
2016-07-09T09:57:14.793Z,1012.89
2016-07-09T09:58:14.799Z,1012.94
2016-07-09T09:59:14.803Z,1012.98
2016-07-09T10:00:14.807Z,1013.07
2016-07-09T10:01:14.820Z,1013.05
2016-07-09T10:02:14.817Z,1013.14
2016-07-09T10:03:14.823Z,1013.17
2016-07-09T10:04:14.828Z,1013.32
2016-07-09T10:05:14.834Z,1013.53
2016-07-09T10:06:14.835Z,1013.62
2016-07-09T10:07:14.841Z,1013.71
2016-07-09T10:08:15.196Z,1013.78
2016-07-09T10:09:14.846Z,1013.62
2016-07-09T10:10:14.851Z,1013.51
2016-07-09T10:11:14.858Z,1013.62
2016-07-09T10:12:14.860Z,1013.76
2016-07-09T10:13:14.870Z,1013.86
2016-07-09T10:14:14.871Z,1013.84
2016-07-09T10:15:14.874Z,1013.84
2016-07-09T10:16:14.883Z,1013.63
2016-07-09T10:17:14.883Z,1013.49
2016-07-09T10:18:14.887Z,1013.4
2016-07-09T10:19:14.892Z,1013.29
2016-07-09T10:20:14.896Z,1013.19
2016-07-09T10:21:14.900Z,1013.28
2016-07-09T10:22:14.906Z,1013.4
2016-07-09T10:23:14.908Z,1013.66
2016-07-09T10:24:14.919Z,1013.71
2016-07-09T10:25:14.918Z,1013.78
2016-07-09T10:26:14.920Z,1013.69
2016-07-09T10:27:14.927Z,1013.57
2016-07-09T10:28:14.931Z,1013.44
2016-07-09T10:29:14.936Z,1013.52
2016-07-09T10:30:15.240Z,1013.67
2016-07-09T10:31:14.946Z,1013.92
2016-07-09T10:32:14.952Z,1013.79
2016-07-09T10:33:14.956Z,1013.78
2016-07-09T10:34:14.958Z,1013.7
2016-07-09T10:35:14.966Z,1013.6
2016-07-09T10:36:14.971Z,1013.58
2016-07-09T10:37:14.977Z,1013.69
2016-07-09T10:38:14.981Z,1013.59
2016-07-09T10:39:14.985Z,1013.72
2016-07-09T10:40:15.785Z,1013.78
2016-07-09T10:41:14.997Z,1013.71
2016-07-09T10:42:15.000Z,1013.47
2016-07-09T10:43:15.008Z,1013.46
2016-07-09T10:44:15.013Z,1013.5
2016-07-09T10:45:15.016Z,1013.45
2016-07-09T10:46:15.023Z,1013.47
2016-07-09T10:47:15.027Z,1013.46
2016-07-09T10:48:15.032Z,1013.55
2016-07-09T10:49:15.035Z,1013.6
2016-07-09T10:50:16.018Z,1013.67
2016-07-09T10:51:15.168Z,1013.75
2016-07-09T10:52:16.286Z,1013.71
2016-07-09T10:53:15.055Z,1013.74
2016-07-09T10:54:15.058Z,1013.82
2016-07-09T10:55:15.063Z,1013.91
2016-07-09T10:56:15.066Z,1013.86
2016-07-09T10:57:15.072Z,1013.99
2016-07-09T10:58:15.075Z,1014.09
2016-07-09T10:59:15.079Z,1014.13
2016-07-09T11:00:15.082Z,1014.06
2016-07-09T11:01:15.086Z,1013.81
2016-07-09T11:02:15.090Z,1013.89
2016-07-09T11:03:15.093Z,1014.28
2016-07-09T11:04:15.099Z,1014.29
2016-07-09T11:05:15.103Z,1014.19
2016-07-09T11:06:15.105Z,1014.12
2016-07-09T11:07:15.109Z,1013.89
2016-07-09T11:08:15.115Z,1013.89
2016-07-09T11:09:15.119Z,1013.67
2016-07-09T11:10:15.123Z,1013.63
2016-07-09T11:11:15.129Z,1013.55
2016-07-09T11:12:15.133Z,1013.44
2016-07-09T11:13:15.587Z,1013.41
2016-07-09T11:14:15.141Z,1013.37
2016-07-09T11:15:15.148Z,1013.42
2016-07-09T11:16:15.151Z,1013.38
2016-07-09T11:17:15.155Z,1013.35
2016-07-09T11:18:15.161Z,1013.51
2016-07-09T11:19:15.166Z,1013.57
2016-07-09T11:20:15.170Z,1013.63
2016-07-09T11:21:15.172Z,1013.61
2016-07-09T11:22:15.177Z,1013.63
2016-07-09T11:23:15.182Z,1013.72
2016-07-09T11:24:15.186Z,1013.67
2016-07-09T11:25:15.792Z,1013.57
2016-07-09T11:26:15.192Z,1013.72
2016-07-09T11:27:15.198Z,1013.82
2016-07-09T11:28:15.199Z,1014.04
2016-07-09T11:29:15.204Z,1014.19
2016-07-09T11:30:15.209Z,1014.27
2016-07-09T11:31:15.210Z,1014.23
2016-07-09T11:32:15.216Z,1014.2
2016-07-09T11:33:15.220Z,1014.14
2016-07-09T11:34:15.223Z,1014.12
2016-07-09T11:35:15.228Z,1013.98
2016-07-09T11:36:15.230Z,1013.86
2016-07-09T11:37:15.234Z,1013.84
2016-07-09T11:38:15.240Z,1013.97
2016-07-09T11:39:15.242Z,1014.03
2016-07-09T11:40:15.248Z,1014.12
2016-07-09T11:41:15.251Z,1014.22
2016-07-09T11:42:15.255Z,1014.31
2016-07-09T11:43:15.260Z,1014.31
2016-07-09T11:44:15.264Z,1014.27
2016-07-09T11:45:15.269Z,1014.26
2016-07-09T11:46:15.275Z,1014.28
2016-07-09T11:47:15.280Z,1014.3
2016-07-09T11:48:15.284Z,1014.26
2016-07-09T11:49:15.291Z,1014.34
2016-07-09T11:50:15.294Z,1014.36
2016-07-09T11:51:15.301Z,1014.26
2016-07-09T11:52:15.307Z,1014.3
2016-07-09T11:53:15.310Z,1014.19
2016-07-09T11:54:15.314Z,1014.05
2016-07-09T11:55:15.320Z,1013.97
2016-07-09T11:56:15.327Z,1014
2016-07-09T11:57:15.331Z,1014.06
2016-07-09T11:58:15.338Z,1014.16
2016-07-09T11:59:17.345Z,1014.33
2016-07-09T12:01:15.356Z,1014.14
2016-07-09T12:02:16.499Z,1014.08
2016-07-09T12:03:16.254Z,1014.08
2016-07-09T12:04:15.374Z,1013.99
2016-07-09T12:05:15.380Z,1014
2016-07-09T12:06:15.387Z,1013.99
2016-07-09T12:07:15.393Z,1014.16
2016-07-09T12:08:15.397Z,1014.3
2016-07-09T12:09:15.406Z,1014.4
2016-07-09T12:10:15.409Z,1014.42
2016-07-09T12:11:16.015Z,1014.42
2016-07-09T12:12:16.247Z,1014.38
2016-07-09T12:13:15.431Z,1014.41
2016-07-09T12:14:15.437Z,1014.44
2016-07-09T12:15:15.440Z,1014.38
2016-07-09T12:16:15.449Z,1014.21
2016-07-09T12:17:15.454Z,1014.27
2016-07-09T12:18:15.463Z,1014.38